createdAt,value
2023-02-18T00:02:09.680Z,2.33
2023-02-18T00:07:13.660Z,2.28
2023-02-18T00:12:15.992Z,2.38
2023-02-18T00:17:18.372Z,2.20
2023-02-18T00:22:22.233Z,2.50
2023-02-18T00:27:24.681Z,2.03
2023-02-18T00:32:27.062Z,2.38
2023-02-18T00:37:30.964Z,2.50
2023-02-18T00:42:33.860Z,2.70
2023-02-18T00:47:36.274Z,2.10
2023-02-18T00:52:40.284Z,2.60
2023-02-18T00:57:42.637Z,2.00
2023-02-18T01:02:45.092Z,2.20
2023-02-18T01:07:48.899Z,2.50
2023-02-18T01:12:51.218Z,2.50
2023-02-18T01:17:53.584Z,2.80
2023-02-18T01:22:57.427Z,2.55
2023-02-18T01:27:59.833Z,2.30
2023-02-18T01:33:02.253Z,2.40
2023-02-18T01:38:06.156Z,2.15
2023-02-18T01:43:11.507Z,2.65
2023-02-18T01:48:18.509Z,2.17
2023-02-18T01:53:27.345Z,1.80
2023-02-18T01:58:29.902Z,2.40
2023-02-18T02:03:32.217Z,2.10
2023-02-18T02:08:36.045Z,2.63
2023-02-18T02:13:58.075Z,2.33
2023-02-18T02:19:15.449Z,2.55
2023-02-18T02:24:54.052Z,1.98
2023-02-18T02:30:23.473Z,2.30
2023-02-18T02:35:32.114Z,2.30
2023-02-18T02:40:44.776Z,2.83
2023-02-18T02:45:55.202Z,2.13
2023-02-18T02:51:07.048Z,2.47
2023-02-18T02:56:15.037Z,2.45
2023-02-18T03:01:36.748Z,1.75
2023-02-18T03:07:11.333Z,1.80
2023-02-18T03:12:21.454Z,1.92
2023-02-18T03:17:27.875Z,1.95
2023-02-18T03:22:36.201Z,2.10
2023-02-18T03:27:44.226Z,2.22
2023-02-18T03:32:49.247Z,2.20
2023-02-18T03:37:58.156Z,2.20
2023-02-18T03:43:00.556Z,1.73
2023-02-18T03:48:02.962Z,1.95
2023-02-18T03:53:06.880Z,2.00
2023-02-18T03:58:09.177Z,1.70
2023-02-18T04:03:11.448Z,1.73
2023-02-18T04:08:15.150Z,2.28
2023-02-18T04:13:18.016Z,1.83
2023-02-18T04:18:21.266Z,2.10
2023-02-18T04:23:28.181Z,1.92
2023-02-18T04:28:30.803Z,1.92
2023-02-18T04:33:33.866Z,1.70
2023-02-18T04:38:41.343Z,2.20
2023-02-18T04:43:44.121Z,2.13
2023-02-18T04:48:46.800Z,1.90
2023-02-18T04:53:53.235Z,2.22
2023-02-18T04:58:56.068Z,2.93
2023-02-18T05:03:58.820Z,2.92
2023-02-18T05:09:03.120Z,3.22
2023-02-18T05:14:05.944Z,3.25
2023-02-18T05:19:09.235Z,3.72
2023-02-18T05:24:13.467Z,2.88
2023-02-18T05:29:16.062Z,2.70
2023-02-18T05:34:19.028Z,3.08
2023-02-18T05:39:23.320Z,3.45
2023-02-18T05:44:26.146Z,3.70
2023-02-18T05:49:29.457Z,3.72
2023-02-18T05:54:34.672Z,3.90
2023-02-18T05:59:37.366Z,4.10
2023-02-18T06:04:40.044Z,4.18
2023-02-18T06:09:44.230Z,4.35
2023-02-18T06:14:47.308Z,4.43
2023-02-18T06:19:50.230Z,4.95
2023-02-18T06:24:54.510Z,4.90
2023-02-18T06:29:57.269Z,7.35
2023-02-18T06:35:00.141Z,7.97
2023-02-18T06:40:05.064Z,10.35
2023-02-18T06:45:08.596Z,6.93
2023-02-18T06:50:37.188Z,6.80
2023-02-18T06:55:50.833Z,6.53
2023-02-18T07:01:02.014Z,7.50
2023-02-18T07:06:20.600Z,7.80
2023-02-18T07:11:48.575Z,7.72
2023-02-18T07:17:02.149Z,7.78
2023-02-18T07:22:12.539Z,7.32
2023-02-18T07:27:22.796Z,7.82
2023-02-18T07:32:32.184Z,7.25
2023-02-18T07:37:41.304Z,8.27
2023-02-18T07:42:52.761Z,7.28
2023-02-18T07:48:01.590Z,7.10
2023-02-18T07:53:18.143Z,5.95
2023-02-18T07:58:35.705Z,6.93
2023-02-18T08:03:38.663Z,6.47
2023-02-18T08:08:44.126Z,5.07
2023-02-18T08:13:48.855Z,4.75
2023-02-18T08:18:56.139Z,4.63
2023-02-18T08:29:12.906Z,3.55
2023-02-18T08:34:16.086Z,2.90
2023-02-18T08:44:29.742Z,3.13
2023-02-18T08:49:32.052Z,3.85
2023-02-18T08:54:34.435Z,3.78
2023-02-18T08:59:38.282Z,4.30
2023-02-18T09:04:40.594Z,4.10
2023-02-18T09:09:42.947Z,4.10
2023-02-18T09:14:48.344Z,4.43
2023-02-18T09:19:50.663Z,3.78
2023-02-18T09:24:53.126Z,3.35
2023-02-18T09:29:57.122Z,3.55
2023-02-18T09:34:59.499Z,2.92
2023-02-18T09:40:01.840Z,3.53
2023-02-18T09:45:11.754Z,2.78
2023-02-18T09:50:19.388Z,2.97
2023-02-18T09:55:27.767Z,2.08
2023-02-18T10:00:35.268Z,1.98
2023-02-18T10:05:42.899Z,0.98
2023-02-18T10:10:46.769Z,1.05
2023-02-18T10:15:52.073Z,0.80
2023-02-18T10:21:01.508Z,0.95
2023-02-18T10:26:06.333Z,1.10
2023-02-18T10:31:15.646Z,0.68
2023-02-18T10:36:27.221Z,1.08
2023-02-18T10:41:38.314Z,1.50
2023-02-18T10:46:51.569Z,1.75
2023-02-18T10:51:58.025Z,1.70
2023-02-18T10:57:01.275Z,1.30
2023-02-18T11:02:16.365Z,1.83
2023-02-18T11:07:22.311Z,1.90
2023-02-18T11:12:27.622Z,2.00
2023-02-18T11:17:36.757Z,2.33
2023-02-18T11:22:39.492Z,1.35
2023-02-18T11:27:44.631Z,1.92
2023-02-18T11:32:55.047Z,2.50
2023-02-18T11:38:00.962Z,2.00
2023-02-18T11:43:11.992Z,2.08
2023-02-18T11:48:20.168Z,3.22
2023-02-18T11:53:31.810Z,2.33
2023-02-18T11:58:39.971Z,2.95
2023-02-18T12:03:48.694Z,3.58
2023-02-18T12:08:56.363Z,2.58
2023-02-18T12:13:59.738Z,3.00
2023-02-18T12:19:18.762Z,3.20
2023-02-18T12:24:41.608Z,2.67
2023-02-18T12:30:21.775Z,3.13
2023-02-18T12:35:42.415Z,3.13
2023-02-18T12:41:00.793Z,3.15
2023-02-18T12:46:21.343Z,2.95
2023-02-18T12:51:36.050Z,2.85
2023-02-18T12:56:58.558Z,3.65
2023-02-18T13:02:10.984Z,3.97
2023-02-18T13:07:39.415Z,3.40
2023-02-18T13:12:46.733Z,2.97
2023-02-18T13:22:53.968Z,3.10
2023-02-18T13:28:07.847Z,3.60
2023-02-18T13:33:19.669Z,3.05
2023-02-18T13:38:49.916Z,2.63
2023-02-18T13:43:52.218Z,3.05
2023-02-18T13:49:04.966Z,3.17
2023-02-18T13:54:19.344Z,3.22
2023-02-18T13:59:29.063Z,2.90
2023-02-18T14:04:55.665Z,2.55
2023-02-18T14:10:01.032Z,2.78
2023-02-18T14:15:36.514Z,2.33
2023-02-18T14:20:50.165Z,2.72
2023-02-18T14:25:57.219Z,2.40
2023-02-18T14:31:02.748Z,2.30
2023-02-18T14:36:18.805Z,2.85
2023-02-18T14:41:39.733Z,3.20
2023-02-18T14:46:56.906Z,3.00
2023-02-18T14:57:09.158Z,2.50
2023-02-18T15:02:20.912Z,2.80
2023-02-18T15:07:26.878Z,2.25
2023-02-18T15:12:31.014Z,2.28
2023-02-18T15:17:52.367Z,2.60
2023-02-18T15:23:17.207Z,2.40
2023-02-18T15:28:51.480Z,2.28
2023-02-18T15:34:33.739Z,2.15
2023-02-18T15:39:36.142Z,2.72
2023-02-18T15:44:46.954Z,2.15
2023-02-18T15:49:52.362Z,2.38
2023-02-18T15:54:55.736Z,2.50
2023-02-18T16:00:04.886Z,2.05
2023-02-18T16:05:14.505Z,2.65
2023-02-18T16:10:20.774Z,2.08
2023-02-18T16:15:28.951Z,2.72
2023-02-18T16:20:33.268Z,3.05
2023-02-18T16:25:43.319Z,2.17
2023-02-18T16:30:47.206Z,2.45
2023-02-18T16:35:51.015Z,2.80
2023-02-18T16:40:55.037Z,2.80
2023-02-18T16:46:08.337Z,2.67
2023-02-18T16:51:14.655Z,2.85
2023-02-18T16:56:19.129Z,2.72
2023-02-18T17:01:26.774Z,2.40
2023-02-18T17:06:29.800Z,2.53
2023-02-18T17:11:53.911Z,2.28
2023-02-18T17:17:16.450Z,2.03
2023-02-18T17:22:37.109Z,2.20
2023-02-18T17:27:39.446Z,2.22
2023-02-18T17:32:43.840Z,1.92
2023-02-18T17:37:46.741Z,1.73
2023-02-18T17:42:49.725Z,1.92
2023-02-18T17:47:53.564Z,1.75
2023-02-18T17:52:55.920Z,1.40
2023-02-18T17:57:58.724Z,1.10
2023-02-18T18:03:03.887Z,1.50
2023-02-18T18:08:07.329Z,1.17
2023-02-18T18:13:15.796Z,1.52
2023-02-18T18:18:20.380Z,1.60
2023-02-18T18:23:23.049Z,1.30
2023-02-18T18:28:26.585Z,1.05
2023-02-18T18:33:32.086Z,1.30
2023-02-18T18:38:34.527Z,0.80
2023-02-18T18:43:36.761Z,0.80
2023-02-18T18:48:40.666Z,1.20
2023-02-18T18:53:43.096Z,1.00
2023-02-18T18:58:45.562Z,1.00
2023-02-18T19:03:49.420Z,1.30
2023-02-18T19:08:52.041Z,1.40
2023-02-18T19:13:54.526Z,1.23
2023-02-18T19:18:58.439Z,1.00
2023-02-18T19:24:00.722Z,1.30
2023-02-18T19:29:03.146Z,1.35
2023-02-18T19:34:06.919Z,1.35
2023-02-18T19:39:09.381Z,1.88
2023-02-18T19:44:11.733Z,1.80
2023-02-18T19:49:15.505Z,1.23
2023-02-18T19:54:17.812Z,1.30
2023-02-18T19:59:20.367Z,1.02
2023-02-18T20:04:24.569Z,1.10
2023-02-18T20:09:27.048Z,1.30
2023-02-18T20:14:29.424Z,1.33
2023-02-18T20:19:34.211Z,1.67
2023-02-18T20:24:37.793Z,1.48
2023-02-18T20:29:40.254Z,1.58
2023-02-18T20:34:44.024Z,1.30
2023-02-18T20:39:46.754Z,1.42
2023-02-18T20:44:49.097Z,2.08
2023-02-18T20:49:57.047Z,1.70
2023-02-18T20:54:59.522Z,1.30
2023-02-18T21:00:01.820Z,1.85
2023-02-18T21:05:06.268Z,1.70
2023-02-18T21:10:08.979Z,1.60
2023-02-18T21:15:11.670Z,2.60
2023-02-18T21:20:15.727Z,1.88
2023-02-18T21:25:18.245Z,1.75
2023-02-18T21:30:20.868Z,2.25
2023-02-18T21:35:24.987Z,1.70
2023-02-18T21:40:27.459Z,1.70
2023-02-18T21:45:29.801Z,1.27
2023-02-18T21:50:33.712Z,1.50
2023-02-18T21:55:36.035Z,1.20
2023-02-18T22:00:38.418Z,1.40
2023-02-18T22:05:42.350Z,1.77
2023-02-18T22:10:44.812Z,2.38
2023-02-18T22:15:55.537Z,2.35
2023-02-18T22:20:59.486Z,1.92
2023-02-18T22:26:06.735Z,2.20
2023-02-18T22:31:11.737Z,2.45
2023-02-18T22:36:15.874Z,2.15
2023-02-18T22:41:20.354Z,2.30
2023-02-18T22:46:23.018Z,2.70
2023-02-18T22:51:29.770Z,2.47
2023-02-18T22:56:32.470Z,2.60
2023-02-18T23:01:36.953Z,2.72
2023-02-18T23:06:43.173Z,2.88
2023-02-18T23:11:45.933Z,2.15
2023-02-18T23:16:51.029Z,2.75
2023-02-18T23:21:54.981Z,1.88
2023-02-18T23:26:57.393Z,1.92
2023-02-18T23:31:59.835Z,1.45
2023-02-18T23:37:03.813Z,2.10
2023-02-18T23:42:06.428Z,2.40
2023-02-18T23:47:08.823Z,2.20
2023-02-18T23:52:12.623Z,2.38
2023-02-18T23:57:14.956Z,2.65
